createdAt,value
2023-04-01T00:02:19.532Z,6.88
2023-04-01T00:04:47.361Z,6.88
2023-04-01T00:07:14.714Z,6.86
2023-04-01T00:09:46.866Z,6.83
2023-04-01T00:12:14.120Z,6.84
2023-04-01T00:14:41.575Z,6.80
2023-04-01T00:17:12.004Z,6.77
2023-04-01T00:19:39.302Z,6.78
2023-04-01T00:22:06.766Z,6.79
2023-04-01T00:24:34.271Z,6.76
2023-04-01T00:27:01.536Z,6.75
2023-04-01T00:29:31.233Z,6.72
2023-04-01T00:31:59.075Z,6.69
2023-04-01T00:34:26.793Z,6.64
2023-04-01T00:36:54.831Z,6.53
2023-04-01T00:39:22.396Z,6.42
2023-04-01T00:41:50.568Z,6.34
2023-04-01T00:44:22.632Z,6.26
2023-04-01T00:46:53.887Z,6.19
2023-04-01T00:49:22.970Z,6.19
2023-04-01T00:51:52.405Z,6.22
2023-04-01T00:54:20.557Z,6.27
2023-04-01T00:56:59.766Z,6.30
2023-04-01T00:59:33.079Z,6.32
2023-04-01T01:02:01.294Z,6.32
2023-04-01T01:04:31.170Z,6.31
2023-04-01T01:07:01.589Z,6.33
2023-04-01T01:09:30.519Z,6.28
2023-04-01T01:12:01.723Z,6.20
2023-04-01T01:14:50.886Z,6.18
2023-04-01T01:17:21.145Z,6.16
2023-04-01T01:20:10.030Z,6.13
2023-04-01T01:23:02.714Z,6.11
2023-04-01T01:26:00.176Z,6.12
2023-04-01T01:28:27.588Z,6.12
2023-04-01T01:31:13.366Z,6.12
2023-04-01T01:33:56.168Z,6.10
2023-04-01T01:36:24.436Z,6.07
2023-04-01T01:38:52.358Z,6.07
2023-04-01T01:41:19.837Z,6.05
2023-04-01T01:43:48.352Z,6.02
2023-04-01T01:46:18.079Z,6.01
2023-04-01T01:48:46.126Z,5.99
2023-04-01T01:51:13.551Z,5.97
2023-04-01T01:53:41.127Z,5.96
2023-04-01T01:56:10.309Z,5.99
2023-04-01T01:58:44.230Z,6.02
2023-04-01T02:01:14.579Z,6.01
2023-04-01T02:03:42.611Z,6.00
2023-04-01T02:06:11.601Z,6.01
2023-04-01T02:08:40.936Z,6.01
2023-04-01T02:11:12.586Z,6.00
2023-04-01T02:13:53.526Z,6.02
2023-04-01T02:16:26.812Z,6.04
2023-04-01T02:18:55.552Z,6.09
2023-04-01T02:21:23.273Z,6.09
2023-04-01T02:23:50.863Z,6.07
2023-04-01T02:26:18.191Z,6.11
2023-04-01T02:28:45.694Z,6.16
2023-04-01T02:31:13.659Z,6.19
2023-04-01T02:33:41.455Z,6.15
2023-04-01T02:36:15.469Z,6.12
2023-04-01T02:38:43.495Z,6.15
2023-04-01T02:41:11.049Z,6.18
2023-04-01T02:43:38.773Z,6.16
2023-04-01T02:46:10.369Z,6.11
2023-04-01T02:48:38.790Z,6.10
2023-04-01T02:51:06.270Z,6.09
2023-04-01T02:53:35.261Z,6.03
2023-04-01T02:56:02.614Z,5.99
2023-04-01T02:58:31.714Z,5.99
2023-04-01T03:00:58.928Z,6.04
2023-04-01T03:03:26.717Z,6.08
2023-04-01T03:05:56.881Z,6.09
2023-04-01T03:08:25.225Z,6.07
2023-04-01T03:10:52.684Z,6.07
2023-04-01T03:13:21.883Z,6.08
2023-04-01T03:15:49.948Z,6.09
2023-04-01T03:18:17.269Z,6.07
2023-04-01T03:20:47.623Z,6.05
2023-04-01T03:23:19.790Z,6.01
2023-04-01T03:25:47.485Z,5.98
2023-04-01T03:28:15.838Z,5.98
2023-04-01T03:30:43.759Z,6.00
2023-04-01T03:33:14.367Z,6.01
2023-04-01T03:35:42.908Z,6.01
2023-04-01T03:38:10.714Z,6.01
2023-04-01T03:40:38.956Z,6.03
2023-04-01T03:43:08.926Z,6.01
2023-04-01T03:45:47.726Z,5.95
2023-04-01T03:48:17.009Z,5.94
2023-04-01T03:50:45.158Z,5.98
2023-04-01T03:53:13.668Z,6.03
2023-04-01T03:55:41.652Z,6.04
2023-04-01T03:58:12.259Z,6.01
2023-04-01T04:00:41.321Z,5.98
2023-04-01T04:03:18.030Z,5.96
2023-04-01T04:05:48.945Z,5.95
2023-04-01T04:08:16.380Z,5.96
2023-04-01T04:10:44.167Z,5.99
2023-04-01T04:13:11.421Z,5.98
2023-04-01T04:15:43.973Z,6.00
2023-04-01T04:18:11.756Z,6.01
2023-04-01T04:20:50.787Z,6.02
2023-04-01T04:23:18.680Z,6.06
2023-04-01T04:25:54.712Z,6.07
2023-04-01T04:28:22.587Z,6.06
2023-04-01T04:30:50.390Z,6.01
2023-04-01T04:33:17.952Z,5.94
2023-04-01T04:35:45.378Z,5.91
2023-04-01T04:38:13.426Z,5.93
2023-04-01T04:40:41.203Z,5.95
2023-04-01T04:43:12.946Z,5.93
2023-04-01T04:45:41.099Z,5.96
2023-04-01T04:48:09.872Z,5.98
2023-04-01T04:50:38.333Z,6.00
2023-04-01T04:53:06.021Z,6.05
2023-04-01T04:55:35.693Z,6.07
2023-04-01T04:58:20.636Z,6.14
2023-04-01T05:00:48.307Z,6.18
2023-04-01T05:03:25.763Z,6.19
2023-04-01T05:05:54.300Z,6.25
2023-04-01T05:08:21.846Z,6.27
2023-04-01T05:10:49.915Z,6.29
2023-04-01T05:13:17.241Z,6.33
2023-04-01T05:15:55.594Z,6.39
2023-04-01T05:18:23.918Z,6.42
2023-04-01T05:20:52.150Z,6.39
2023-04-01T05:23:21.636Z,6.37
2023-04-01T05:25:50.290Z,6.36
2023-04-01T05:28:17.651Z,6.36
2023-04-01T05:30:47.192Z,6.33
2023-04-01T05:33:31.999Z,6.33
2023-04-01T05:36:10.062Z,6.34
2023-04-01T05:38:37.989Z,6.33
2023-04-01T05:41:05.869Z,6.35
2023-04-01T05:43:37.100Z,6.40
2023-04-01T05:46:12.777Z,6.41
2023-04-01T05:48:50.454Z,6.38
2023-04-01T05:51:18.110Z,6.37
2023-04-01T05:53:45.879Z,6.37
2023-04-01T05:56:13.941Z,6.39
2023-04-01T05:58:47.542Z,6.35
2023-04-01T06:01:16.416Z,6.34
2023-04-01T06:03:48.654Z,6.36
2023-04-01T06:06:18.101Z,6.35
2023-04-01T06:08:47.325Z,6.35
2023-04-01T06:11:20.080Z,6.35
2023-04-01T06:14:07.408Z,6.40
2023-04-01T06:16:42.549Z,6.45
2023-04-01T06:19:22.912Z,6.46
2023-04-01T17:57:55.403Z,9.60
2023-04-01T18:00:53.483Z,9.62
2023-04-01T18:03:33.255Z,9.62
2023-04-01T18:06:11.113Z,9.57
2023-04-01T18:08:40.718Z,9.52
2023-04-01T18:11:35.676Z,9.45
2023-04-01T18:14:10.040Z,9.34
2023-04-01T18:16:41.668Z,9.22
2023-04-01T18:19:21.692Z,9.13
2023-04-01T18:22:19.961Z,9.02
2023-04-01T18:25:07.552Z,8.92
2023-04-01T18:27:39.739Z,8.85
2023-04-01T18:30:16.816Z,8.77
2023-04-01T18:32:48.616Z,8.70
2023-04-01T18:35:29.047Z,8.64
2023-04-01T18:38:01.390Z,8.58
2023-04-01T18:40:39.022Z,8.53
2023-04-01T18:43:22.743Z,8.49
2023-04-01T18:45:55.783Z,8.45
2023-04-01T18:49:22.965Z,8.43
2023-04-01T18:52:15.204Z,8.40
2023-04-01T18:55:04.476Z,8.39
2023-04-01T18:57:47.603Z,8.41
2023-04-01T19:00:18.252Z,8.39
2023-04-01T19:02:51.790Z,8.36
2023-04-01T19:05:20.147Z,8.31
2023-04-01T19:07:53.334Z,8.31
2023-04-01T19:10:39.114Z,8.29
2023-04-01T19:13:12.118Z,8.24
2023-04-01T19:16:02.172Z,8.21
2023-04-01T19:18:55.313Z,8.16
2023-04-01T19:21:37.849Z,8.12
2023-04-01T19:24:21.760Z,8.09
2023-04-01T19:26:58.644Z,8.09
2023-04-01T19:29:32.547Z,8.09
2023-04-01T19:32:16.393Z,8.07
2023-04-01T19:34:47.838Z,8.07
2023-04-01T19:37:28.206Z,8.06
2023-04-01T19:40:18.543Z,8.07
2023-04-01T19:42:58.135Z,8.05
2023-04-01T19:45:47.097Z,7.99
2023-04-01T19:49:04.831Z,7.94
2023-04-01T19:51:35.672Z,7.91
2023-04-01T19:54:29.025Z,7.88
2023-04-01T19:57:36.624Z,7.85
2023-04-01T20:00:17.181Z,7.82
2023-04-01T20:03:27.047Z,7.78
2023-04-01T20:06:03.026Z,7.75
2023-04-01T20:08:56.996Z,7.69
2023-04-01T20:11:49.330Z,7.61
2023-04-01T20:14:36.125Z,7.57
2023-04-01T20:17:07.063Z,7.51
2023-04-01T20:19:44.774Z,7.48
2023-04-01T20:22:33.445Z,7.47
2023-04-01T20:25:06.212Z,7.46
2023-04-01T20:27:37.089Z,7.44
2023-04-01T20:30:24.051Z,7.42
2023-04-01T20:33:16.104Z,7.42
2023-04-01T20:36:13.609Z,7.40
2023-04-01T20:39:11.916Z,7.38
2023-04-01T20:41:41.071Z,7.34
2023-04-01T20:44:13.633Z,7.29
2023-04-01T20:46:56.408Z,7.27
2023-04-01T20:49:31.856Z,7.28
2023-04-01T20:51:59.316Z,7.27
2023-04-01T20:54:45.914Z,7.28
2023-04-01T20:57:17.579Z,7.27
2023-04-01T20:59:47.496Z,7.21
2023-04-01T21:02:41.529Z,7.20
2023-04-01T21:05:28.943Z,7.19
2023-04-01T21:08:03.245Z,7.17
2023-04-01T21:10:52.419Z,7.14
2023-04-01T21:13:43.390Z,7.12
2023-04-01T21:16:33.104Z,7.13
2023-04-01T21:19:13.768Z,7.18
2023-04-01T21:22:01.767Z,7.20
2023-04-01T21:24:39.256Z,7.22
2023-04-01T21:27:29.753Z,7.26
2023-04-01T21:30:28.744Z,7.28
2023-04-01T21:33:15.897Z,7.29
2023-04-01T21:35:52.749Z,7.27
2023-04-01T21:38:40.782Z,7.23
2023-04-01T21:41:11.410Z,7.19
2023-04-01T21:44:14.913Z,7.15
2023-04-01T21:47:04.896Z,7.13
2023-04-01T21:49:41.467Z,7.11
2023-04-01T21:52:40.666Z,7.10
2023-04-01T21:55:46.216Z,7.08
2023-04-01T21:58:45.516Z,7.07
2023-04-01T22:01:22.078Z,7.05
2023-04-01T22:04:09.296Z,7.03
2023-04-01T22:07:08.051Z,7.01
2023-04-01T22:09:40.287Z,6.96
2023-04-01T22:12:32.448Z,6.93
2023-04-01T22:15:39.002Z,6.91
2023-04-01T22:18:40.938Z,6.89
2023-04-01T22:21:16.877Z,6.91
2023-04-01T22:23:50.213Z,6.92
2023-04-01T22:26:29.318Z,6.95
2023-04-01T22:29:36.328Z,6.98
2023-04-01T22:32:07.949Z,7.02
2023-04-01T22:34:44.832Z,7.04
2023-04-01T22:37:38.199Z,7.05
2023-04-01T22:40:16.308Z,7.05
2023-04-01T22:42:45.541Z,7.02
2023-04-01T22:45:13.983Z,7.02
2023-04-01T22:47:53.639Z,7.00
2023-04-01T22:50:25.266Z,6.95
2023-04-01T22:53:13.758Z,6.92
2023-04-01T22:55:53.059Z,6.88
2023-04-01T22:58:31.068Z,6.84
2023-04-01T23:01:05.826Z,6.78
2023-04-01T23:03:40.829Z,6.73
2023-04-01T23:06:17.812Z,6.71
2023-04-01T23:09:06.767Z,6.69
2023-04-01T23:11:54.207Z,6.66
2023-04-01T23:14:23.802Z,6.64
2023-04-01T23:17:04.468Z,6.62
2023-04-01T23:19:41.863Z,6.56
2023-04-01T23:22:36.557Z,6.53
2023-04-01T23:25:16.603Z,6.53
2023-04-01T23:27:50.511Z,6.53
2023-04-01T23:30:40.502Z,6.51
2023-04-01T23:33:20.671Z,6.50
2023-04-01T23:35:48.537Z,6.49
2023-04-01T23:38:16.688Z,6.47
2023-04-01T23:40:44.169Z,6.43
2023-04-01T23:43:20.232Z,6.41
2023-04-01T23:45:47.693Z,6.41
2023-04-01T23:48:16.300Z,6.41
2023-04-01T23:50:44.413Z,6.42
2023-04-01T23:53:21.336Z,6.42
2023-04-01T23:55:49.169Z,6.43
2023-04-01T23:58:23.527Z,6.44
